Time;durP1;ratioP1;P1;durP2;ratioP2;P2;SDS_P1;SDS_P2;PMS_P1;PMS_P2;Temp;Humidity;BMP_temperature;BMP_pressure;BME280_temperature;BME280_humidity;BME280_pressure;Samples;Min_cycle;Max_cycle;Signal;HPM_P1;HPM_P2
2022/12/29 00:02:04;;;;;;;2.93;2.47;;;10.50;99.90;;;;;;5051491;28;20111;-57
2022/12/29 00:04:29;;;;;;;3.77;2.17;;;10.60;99.90;;;;;;5050502;28;20041;-56
2022/12/29 00:06:55;;;;;;;2.00;1.90;;;10.60;99.90;;;;;;5050745;28;20075;-55
2022/12/29 00:09:20;;;;;;;2.80;1.20;;;10.60;99.90;;;;;;5084060;28;20280;-54
2022/12/29 00:11:46;;;;;;;2.53;2.27;;;10.60;99.90;;;;;;5050603;28;20043;-55
2022/12/29 00:16:57;;;;;;;2.35;2.15;;;10.60;99.90;;;;;;5050435;28;20037;-56
2022/12/29 00:36:00;;;;;;;2.13;1.92;;;10.60;99.90;;;;;;5050611;28;20045;-57
2022/12/29 00:44:09;;;;;;;1.92;1.67;;;10.60;99.90;;;;;;5049561;28;20410;-55
2022/12/29 00:46:39;;;;;;;1.40;1.30;;;10.60;99.90;;;;;;5050125;28;20048;-57
2022/12/29 00:51:52;;;;;;;2.20;2.00;;;10.70;99.90;;;;;;5050122;28;20040;-57
2022/12/29 00:54:18;;;;;;;;;;;10.70;99.90;;;;;;5049414;28;20311;-53
2022/12/29 00:56:47;;;;;;;1.92;1.70;;;10.80;99.90;;;;;;5049433;28;20009;-56
2022/12/29 00:59:12;;;;;;;1.75;1.40;;;10.80;99.90;;;;;;5047313;28;20048;-58
2022/12/29 01:01:38;;;;;;;1.43;1.30;;;10.80;99.90;;;;;;5049398;28;20041;-56
2022/12/29 01:04:05;;;;;;;2.00;1.75;;;10.80;99.90;;;;;;5049271;28;20358;-57
2022/12/29 01:06:32;;;;;;;2.35;1.55;;;10.80;99.90;;;;;;5049942;28;20410;-56
2022/12/29 01:11:41;;;;;;;3.00;1.90;;;10.90;99.90;;;;;;5049794;28;20045;-56
2022/12/29 01:14:07;;;;;;;1.63;1.30;;;10.90;99.90;;;;;;5048649;28;20037;-57
2022/12/29 01:16:33;;;;;;;1.10;1.00;;;11.00;99.90;;;;;;5049332;28;20375;-56
2022/12/29 01:18:59;;;;;;;2.78;1.92;;;11.00;99.90;;;;;;5049374;28;20037;-57
2022/12/29 01:21:25;;;;;;;1.60;1.50;;;11.00;99.90;;;;;;5049789;28;20045;-57
2022/12/29 01:23:51;;;;;;;1.05;0.88;;;11.00;99.90;;;;;;5048678;28;20045;-56
2022/12/29 01:26:17;;;;;;;1.55;1.42;;;11.10;99.90;;;;;;5049442;28;20459;-54
2022/12/29 01:28:43;;;;;;;1.40;1.30;;;11.10;99.90;;;;;;5049081;28;20646;-56
2022/12/29 01:31:13;;;;;;;1.67;1.00;;;11.10;99.90;;;;;;5049676;28;20036;-57
2022/12/29 01:33:39;;;;;;;3.58;1.15;;;11.10;99.90;;;;;;5047948;28;20045;-56
2022/12/29 01:36:08;;;;;;;1.50;1.30;;;11.20;99.90;;;;;;5048700;28;20051;-55
2022/12/29 01:38:35;;;;;;;1.65;1.20;;;11.20;99.90;;;;;;5049078;28;20048;-57
2022/12/29 01:41:00;;;;;;;1.50;1.25;;;11.20;99.90;;;;;;5049547;28;20036;-56
2022/12/29 01:43:39;;;;;;;2.90;1.33;;;11.20;99.90;;;;;;5048657;28;20048;-57
2022/12/29 01:46:13;;;;;;;1.08;0.98;;;11.20;99.90;;;;;;5041496;28;20508;-56
2022/12/29 01:48:39;;;;;;;1.10;1.00;;;11.20;99.90;;;;;;5052225;28;20103;-54
2022/12/29 01:51:04;;;;;;;1.70;1.60;;;11.20;99.90;;;;;;5056114;28;20498;-56
2022/12/29 01:53:33;;;;;;;1.30;1.20;;;11.20;99.90;;;;;;5054913;28;20047;-57
2022/12/29 01:56:02;;;;;;;1.10;0.70;;;11.20;99.90;;;;;;5053715;28;20115;-56
2022/12/29 01:58:32;;;;;;;2.28;1.27;;;11.20;99.90;;;;;;5055654;28;20044;-57
2022/12/29 02:00:59;;;;;;;7.85;1.92;;;11.20;99.90;;;;;;5056157;28;20072;-56
2022/12/29 02:03:26;;;;;;;1.42;1.02;;;11.10;99.90;;;;;;5055130;28;20033;-57
2022/12/29 02:06:10;;;;;;;1.48;0.90;;;11.10;99.90;;;;;;5055462;28;20540;-56
2022/12/29 02:08:37;;;;;;;2.35;1.02;;;11.10;99.90;;;;;;5055343;28;20041;-57
2022/12/29 02:11:03;;;;;;;1.15;0.90;;;11.00;99.90;;;;;;5056129;28;20043;-56
2022/12/29 02:13:30;;;;;;;1.67;0.93;;;11.10;99.90;;;;;;5054903;28;20503;-56
2022/12/29 02:16:33;;;;;;;1.60;0.93;;;11.10;99.90;;;;;;5055893;28;20089;-56
2022/12/29 02:19:21;;;;;;;2.13;1.20;;;11.10;99.90;;;;;;5055269;28;20379;-56
2022/12/29 02:22:24;;;;;;;1.23;1.13;;;11.10;99.90;;;;;;5056062;28;20048;-54
2022/12/29 02:24:58;;;;;;;0.80;0.52;;;11.20;99.90;;;;;;5020079;28;20045;-57
2022/12/29 02:27:50;;;;;;;0.85;0.50;;;11.10;99.90;;;;;;5013061;28;20029;-56
2022/12/29 02:30:39;;;;;;;4.57;1.00;;;11.10;99.90;;;;;;5027165;28;20056;-55
2022/12/29 02:33:23;;;;;;;2.88;1.67;;;11.10;99.90;;;;;;5032230;28;20037;-56
2022/12/29 02:36:07;;;;;;;0.77;0.60;;;11.10;99.90;;;;;;5030974;28;20052;-56
2022/12/29 02:38:56;;;;;;;2.90;0.50;;;11.00;99.90;;;;;;5029404;28;20045;-55
2022/12/29 02:41:48;;;;;;;2.80;0.95;;;10.90;99.90;;;;;;5013399;28;20057;-57
2022/12/29 02:44:33;;;;;;;1.55;0.63;;;10.90;99.90;;;;;;5013279;28;20040;-56
2022/12/29 02:47:23;;;;;;;1.17;0.47;;;10.80;99.90;;;;;;5012978;28;20084;-57
2022/12/29 02:50:05;;;;;;;1.58;0.45;;;10.80;99.90;;;;;;5004630;28;20418;-57
2022/12/29 02:52:38;;;;;;;1.02;0.50;;;10.70;99.90;;;;;;5033066;28;20041;-53
2022/12/29 02:55:04;;;;;;;0.77;0.60;;;10.70;99.90;;;;;;5024151;28;20125;-57
2022/12/29 02:57:34;;;;;;;2.70;1.10;;;10.60;99.90;;;;;;5010394;28;20117;-57
2022/12/29 03:00:29;;;;;;;1.65;0.63;;;10.50;99.90;;;;;;5013529;28;20160;-56
2022/12/29 03:03:23;;;;;;;0.68;0.50;;;10.40;99.90;;;;;;5051272;28;20050;-56
2022/12/29 03:06:30;;;;;;;1.00;0.73;;;10.40;99.90;;;;;;5052153;28;20036;-55
2022/12/29 03:09:02;;;;;;;1.42;0.57;;;10.40;99.90;;;;;;5028778;28;20053;-56
2022/12/29 03:17:27;;;;;;;2.00;0.90;;;10.50;99.90;;;;;;5027657;28;20549;-54
2022/12/29 03:20:01;;;;;;;3.28;1.23;;;10.50;99.90;;;;;;5023073;28;20071;-57
2022/12/29 03:22:32;;;;;;;2.03;0.60;;;10.60;99.90;;;;;;5028657;28;20044;-56
2022/12/29 03:25:23;;;;;;;1.65;0.70;;;10.60;99.90;;;;;;5027386;28;20054;-55
2022/12/29 03:28:01;;;;;;;0.70;0.50;;;10.60;99.90;;;;;;4999444;28;20156;-56
2022/12/29 03:30:29;;;;;;;1.35;0.85;;;10.60;99.90;;;;;;5010244;28;20096;-56
2022/12/29 03:32:58;;;;;;;1.48;0.63;;;10.60;99.90;;;;;;5009593;28;20050;-56
2022/12/29 03:35:28;;;;;;;2.45;0.50;;;10.60;99.90;;;;;;5014790;28;20041;-56
2022/12/29 03:38:18;;;;;;;2.60;0.75;;;10.60;99.90;;;;;;5009904;28;20120;-55
2022/12/29 03:40:49;;;;;;;2.92;1.23;;;10.60;99.90;;;;;;5009712;28;20045;-56
2022/12/29 03:43:16;;;;;;;3.47;0.90;;;10.60;99.90;;;;;;5011853;28;20053;-56
2022/12/29 03:45:41;;;;;;;2.45;0.60;;;10.60;99.90;;;;;;5051136;28;20044;-56
2022/12/29 03:48:07;;;;;;;1.50;0.73;;;10.60;99.90;;;;;;5050590;28;20510;-57
2022/12/29 03:50:33;;;;;;;3.33;1.07;;;10.70;99.90;;;;;;5050927;28;20116;-56
2022/12/29 03:52:58;;;;;;;1.23;0.53;;;10.70;99.90;;;;;;5050107;28;20486;-57
2022/12/29 03:55:24;;;;;;;0.77;0.50;;;10.70;99.90;;;;;;5048824;28;20298;-56
2022/12/29 03:57:49;;;;;;;2.07;0.37;;;10.70;99.90;;;;;;5038923;28;20087;-57
2022/12/29 04:00:15;;;;;;;3.93;0.40;;;10.80;99.90;;;;;;5050957;28;20406;-57
2022/12/29 04:02:41;;;;;;;3.03;0.30;;;10.80;99.90;;;;;;5050305;28;20029;-56
2022/12/29 04:05:07;;;;;;;1.48;0.65;;;10.80;99.90;;;;;;5049676;28;20035;-57
2022/12/29 04:07:32;;;;;;;1.48;0.20;;;10.80;99.90;;;;;;5050724;28;20033;-57
2022/12/29 04:09:58;;;;;;;2.87;0.53;;;10.80;99.90;;;;;;5050843;28;20037;-57
2022/12/29 04:12:23;;;;;;;5.40;0.53;;;10.80;99.90;;;;;;5050764;28;20065;-57
2022/12/29 04:14:49;;;;;;;1.43;0.53;;;10.90;99.90;;;;;;5049845;28;20045;-57
2022/12/29 04:17:15;;;;;;;0.90;0.23;;;10.90;99.90;;;;;;5050028;28;20037;-56
2022/12/29 04:19:40;;;;;;;0.73;0.23;;;10.90;99.90;;;;;;5050436;28;20041;-56
2022/12/29 04:22:06;;;;;;;1.03;0.30;;;10.80;99.90;;;;;;5051197;28;20299;-57
2022/12/29 04:24:31;;;;;;;1.23;0.20;;;10.80;99.90;;;;;;5049590;28;20449;-58
2022/12/29 04:26:57;;;;;;;2.53;0.30;;;10.80;99.90;;;;;;5050277;28;20083;-57
2022/12/29 04:29:22;;;;;;;2.13;0.30;;;10.80;99.90;;;;;;5050359;28;20078;-57
2022/12/29 04:31:48;;;;;;;1.88;0.45;;;10.80;99.90;;;;;;5050921;28;20037;-56
2022/12/29 04:34:13;;;;;;;1.47;0.20;;;10.80;99.90;;;;;;5049384;28;20580;-56
2022/12/29 04:36:39;;;;;;;1.23;0.30;;;10.80;99.90;;;;;;5050236;28;20041;-57
2022/12/29 04:39:06;;;;;;;0.50;0.20;;;10.80;99.90;;;;;;5050412;28;20857;-56
2022/12/29 04:41:32;;;;;;;1.17;0.43;;;10.80;99.90;;;;;;5050709;28;20052;-55
2022/12/29 04:43:57;;;;;;;2.60;0.30;;;10.80;99.90;;;;;;5049391;28;20029;-56
2022/12/29 04:46:23;;;;;;;0.70;0.20;;;10.80;99.90;;;;;;5049981;28;20090;-55
2022/12/29 04:48:48;;;;;;;1.05;0.43;;;10.70;99.90;;;;;;5048955;28;20110;-55
2022/12/29 04:51:14;;;;;;;0.83;0.20;;;10.70;99.90;;;;;;5048938;28;20045;-55
2022/12/29 04:53:39;;;;;;;1.67;0.30;;;10.70;99.90;;;;;;5049559;28;20424;-57
2022/12/29 04:56:05;;;;;;;0.87;0.53;;;10.70;99.90;;;;;;5049965;28;20041;-56
2022/12/29 04:58:31;;;;;;;0.57;0.20;;;10.60;99.90;;;;;;5049356;28;20533;-55
2022/12/29 05:00:56;;;;;;;1.30;0.33;;;10.60;99.90;;;;;;5050003;28;20044;-56
2022/12/29 05:03:22;;;;;;;2.23;0.40;;;10.60;99.90;;;;;;5048935;28;20049;-56
2022/12/29 05:05:47;;;;;;;1.23;0.30;;;10.60;99.90;;;;;;5049852;28;20033;-57
2022/12/29 05:08:13;;;;;;;1.80;0.70;;;10.60;99.90;;;;;;5049863;28;20041;-56
2022/12/29 05:10:39;;;;;;;1.27;0.37;;;10.60;99.90;;;;;;5050227;28;20041;-56
2022/12/29 05:13:04;;;;;;;2.70;0.30;;;10.60;99.90;;;;;;5049385;28;20516;-56
2022/12/29 05:15:30;;;;;;;1.17;0.30;;;10.60;99.90;;;;;;5049835;28;20150;-57
2022/12/29 05:17:55;;;;;;;1.50;0.33;;;10.60;99.90;;;;;;5048863;28;20233;-54
2022/12/29 05:20:21;;;;;;;3.37;1.10;;;10.60;99.90;;;;;;5048947;28;20319;-55
2022/12/29 05:22:46;;;;;;;1.20;0.60;;;10.60;99.90;;;;;;5049781;28;20037;-57
2022/12/29 05:25:12;;;;;;;1.47;0.23;;;10.60;99.90;;;;;;5048783;28;20287;-57
2022/12/29 05:27:38;;;;;;;2.17;0.67;;;10.60;99.90;;;;;;5049445;28;20064;-56
2022/12/29 05:30:04;;;;;;;2.43;0.30;;;10.60;99.90;;;;;;5049450;28;20041;-57
2022/12/29 05:32:29;;;;;;;2.33;0.30;;;10.60;99.90;;;;;;5048588;28;20040;-55
2022/12/29 05:34:55;;;;;;;2.60;0.30;;;10.60;99.90;;;;;;5048161;28;20486;-57
2022/12/29 05:37:20;;;;;;;2.00;0.30;;;10.60;99.90;;;;;;5048713;28;20543;-56
2022/12/29 05:39:46;;;;;;;4.10;0.20;;;10.60;99.90;;;;;;5048451;28;20462;-56
2022/12/29 05:42:11;;;;;;;0.57;0.30;;;10.60;99.90;;;;;;5048921;28;20041;-55
2022/12/29 05:44:37;;;;;;;1.50;0.27;;;10.60;99.90;;;;;;5048903;28;20041;-57
2022/12/29 05:47:02;;;;;;;3.07;0.37;;;10.60;99.90;;;;;;5048999;28;20044;-57
2022/12/29 05:49:28;;;;;;;1.00;0.40;;;10.60;99.90;;;;;;5048924;28;20075;-56
2022/12/29 05:51:54;;;;;;;4.03;0.30;;;10.60;99.90;;;;;;5049568;28;20053;-57
2022/12/29 05:54:19;;;;;;;6.35;0.40;;;10.60;99.90;;;;;;5048342;28;20087;-57
2022/12/29 05:56:45;;;;;;;4.20;0.60;;;10.60;99.90;;;;;;5049459;28;20523;-55
2022/12/29 05:59:10;;;;;;;3.80;0.57;;;10.50;99.90;;;;;;5049576;28;20044;-58
2022/12/29 06:01:36;;;;;;;3.07;0.40;;;10.50;99.90;;;;;;5048940;28;20661;-56
2022/12/29 06:04:01;;;;;;;2.35;0.40;;;10.50;99.90;;;;;;5048001;28;20033;-57
2022/12/29 06:06:27;;;;;;;1.90;0.20;;;10.60;99.90;;;;;;5048832;28;20452;-55
2022/12/29 06:08:53;;;;;;;5.17;0.80;;;10.60;99.90;;;;;;5048554;28;20029;-56
2022/12/29 06:11:18;;;;;;;4.07;0.57;;;10.60;99.90;;;;;;5048800;28;20028;-56
2022/12/29 06:13:44;;;;;;;2.83;0.30;;;10.60;99.90;;;;;;5048755;28;20328;-56
2022/12/29 06:16:09;;;;;;;1.70;0.30;;;10.60;99.90;;;;;;5048133;28;20064;-57
2022/12/29 06:18:35;;;;;;;2.80;0.70;;;10.60;99.90;;;;;;5048423;28;20083;-56
2022/12/29 06:21:02;;;;;;;4.60;0.43;;;10.50;99.90;;;;;;5048625;28;20045;-56
2022/12/29 06:23:27;;;;;;;7.38;0.40;;;10.60;99.90;;;;;;5048661;28;20288;-54
2022/12/29 06:25:53;;;;;;;5.60;0.40;;;10.60;99.90;;;;;;5048861;28;20036;-56
2022/12/29 06:28:18;;;;;;;4.35;0.32;;;10.60;99.90;;;;;;5048108;28;20513;-56
2022/12/29 06:30:45;;;;;;;1.77;0.20;;;10.50;99.90;;;;;;5048975;28;20506;-55
2022/12/29 06:33:11;;;;;;;3.75;0.95;;;10.60;99.90;;;;;;5050084;28;20056;-56
2022/12/29 06:35:37;;;;;;;3.72;0.50;;;10.60;99.90;;;;;;5052900;28;20079;-57
2022/12/29 06:38:03;;;;;;;4.72;0.35;;;10.50;99.90;;;;;;5052342;28;20068;-57
2022/12/29 06:40:28;;;;;;;4.93;0.40;;;10.50;99.90;;;;;;5053068;28;20457;-57
2022/12/29 06:42:54;;;;;;;10.75;1.77;;;10.50;99.90;;;;;;5052152;28;20037;-56
2022/12/29 06:45:19;;;;;;;4.80;1.07;;;10.50;99.90;;;;;;5052311;28;20033;-57
2022/12/29 06:47:45;;;;;;;5.57;0.97;;;10.40;99.90;;;;;;5051020;28;20094;-56
2022/12/29 06:50:10;;;;;;;7.47;1.30;;;10.40;99.90;;;;;;5051342;28;20032;-57
2022/12/29 06:52:36;;;;;;;7.77;0.90;;;10.40;99.90;;;;;;5051219;28;20035;-54
2022/12/29 06:55:02;;;;;;;6.83;0.83;;;10.40;99.90;;;;;;5051615;28;20778;-55
2022/12/29 06:57:27;;;;;;;6.82;0.75;;;10.40;99.90;;;;;;5051990;28;20068;-55
2022/12/29 06:59:55;;;;;;;6.70;1.03;;;10.40;99.90;;;;;;5052315;28;20041;-56
2022/12/29 07:02:21;;;;;;;6.72;1.35;;;10.40;99.90;;;;;;5050888;28;20115;-56
2022/12/29 07:04:47;;;;;;;9.38;0.70;;;10.30;99.90;;;;;;5064329;28;20037;-56
2022/12/29 07:07:12;;;;;;;6.03;0.60;;;10.30;99.90;;;;;;5068508;28;20037;-56
2022/12/29 07:09:38;;;;;;;11.65;1.35;;;10.30;99.90;;;;;;5052471;28;20083;-57
2022/12/29 07:12:04;;;;;;;10.30;1.03;;;10.20;99.90;;;;;;5051939;28;20063;-56
2022/12/29 07:14:29;;;;;;;14.02;1.55;;;10.20;99.90;;;;;;5049186;28;20092;-55
2022/12/29 07:16:55;;;;;;;13.63;1.30;;;10.10;99.90;;;;;;5051110;28;20045;-56
2022/12/29 07:19:20;;;;;;;15.20;1.67;;;10.10;99.90;;;;;;5051859;28;20041;-56
2022/12/29 07:21:46;;;;;;;10.77;1.83;;;10.10;99.90;;;;;;5051725;28;20098;-57
2022/12/29 07:24:11;;;;;;;8.67;0.93;;;10.00;99.90;;;;;;5049737;28;20498;-55
2022/12/29 07:26:37;;;;;;;8.68;1.00;;;10.00;99.90;;;;;;5060697;28;20032;-56
2022/12/29 07:29:03;;;;;;;13.30;2.33;;;10.00;99.90;;;;;;5056370;28;20163;-54
2022/12/29 07:31:29;;;;;;;5.00;0.80;;;10.00;99.90;;;;;;5051214;28;20491;-57
2022/12/29 07:33:55;;;;;;;7.13;1.00;;;10.00;99.90;;;;;;5050758;28;20179;-57
2022/12/29 07:36:20;;;;;;;8.50;0.77;;;10.00;99.90;;;;;;5049191;28;20546;-55
2022/12/29 07:38:46;;;;;;;7.72;0.85;;;10.00;99.90;;;;;;5037785;28;20151;-54
2022/12/29 07:41:12;;;;;;;11.83;0.70;;;10.00;99.90;;;;;;5051645;28;20041;-55
2022/12/29 07:43:37;;;;;;;4.93;0.98;;;10.00;99.90;;;;;;5049779;28;20490;-56
2022/12/29 07:46:03;;;;;;;4.83;0.93;;;10.00;99.90;;;;;;5050842;28;20040;-55
2022/12/29 07:48:28;;;;;;;9.98;1.13;;;10.00;99.90;;;;;;5050979;28;20501;-57
2022/12/29 07:50:54;;;;;;;4.33;0.60;;;10.00;99.90;;;;;;5051436;28;20036;-57
2022/12/29 07:53:20;;;;;;;4.77;0.50;;;9.90;99.90;;;;;;5050509;28;20049;-55
2022/12/29 07:55:45;;;;;;;5.45;0.55;;;9.90;99.90;;;;;;5040429;28;20037;-56
2022/12/29 07:58:11;;;;;;;4.60;1.07;;;9.90;99.90;;;;;;5044368;28;20076;-56
2022/12/29 08:00:38;;;;;;;2.60;0.77;;;9.90;99.90;;;;;;5050580;28;20048;-54
2022/12/29 08:03:04;;;;;;;4.05;0.95;;;9.90;99.90;;;;;;5050067;28;20326;-55
2022/12/29 08:05:31;;;;;;;3.50;0.65;;;9.90;99.90;;;;;;5047797;28;20458;-56
2022/12/29 08:07:57;;;;;;;5.28;0.57;;;9.90;99.90;;;;;;5057059;28;20059;-57
2022/12/29 08:10:23;;;;;;;7.53;1.07;;;9.90;99.90;;;;;;5049510;28;20525;-55
2022/12/29 08:12:48;;;;;;;5.30;0.70;;;9.90;99.90;;;;;;5050529;28;20052;-53
2022/12/29 08:15:14;;;;;;;4.80;1.10;;;9.80;99.90;;;;;;5048116;28;20060;-55
2022/12/29 08:17:40;;;;;;;7.35;0.98;;;9.80;99.90;;;;;;5050749;28;20494;-56
2022/12/29 08:20:06;;;;;;;6.00;0.60;;;9.80;99.90;;;;;;5050959;28;20037;-56
2022/12/29 08:22:32;;;;;;;5.50;0.88;;;9.80;99.90;;;;;;5050732;28;20037;-56
2022/12/29 08:24:58;;;;;;;5.25;1.27;;;9.70;99.90;;;;;;5049523;28;20059;-57
2022/12/29 08:27:23;;;;;;;6.07;0.90;;;9.80;99.90;;;;;;5050090;28;20083;-55
2022/12/29 08:29:49;;;;;;;7.23;0.70;;;9.70;99.90;;;;;;5049832;28;20036;-53
2022/12/29 08:32:15;;;;;;;8.03;1.30;;;9.70;99.90;;;;;;5049352;28;20107;-56
2022/12/29 08:34:41;;;;;;;;;;;9.70;99.90;;;;;;5049383;28;20032;-53
2022/12/29 08:37:06;;;;;;;7.53;1.42;;;9.70;99.90;;;;;;5048568;28;19978;-56
2022/12/29 08:39:32;;;;;;;4.30;0.80;;;9.80;99.90;;;;;;5050655;28;20202;-55
2022/12/29 08:41:57;;;;;;;2.73;0.30;;;9.70;99.90;;;;;;5049357;28;20111;-54
2022/12/29 08:44:23;;;;;;;6.93;0.70;;;9.70;99.90;;;;;;5048641;28;20037;-56
2022/12/29 08:46:48;;;;;;;4.67;0.90;;;9.70;99.90;;;;;;5049151;28;20040;-54
2022/12/29 08:49:14;;;;;;;7.60;0.70;;;9.70;99.90;;;;;;5049926;28;20764;-54
2022/12/29 08:51:40;;;;;;;7.33;0.60;;;9.60;99.90;;;;;;5049797;28;20068;-54
2022/12/29 08:54:05;;;;;;;7.60;1.07;;;9.60;99.90;;;;;;5049459;28;20072;-55
2022/12/29 08:56:31;;;;;;;5.93;0.65;;;9.70;99.90;;;;;;5048627;28;20037;-55
2022/12/29 08:58:57;;;;;;;11.00;1.13;;;9.90;99.90;;;;;;5049099;28;20044;-56
2022/12/29 09:01:22;;;;;;;6.43;0.77;;;9.90;99.90;;;;;;5050139;28;20029;-56
2022/12/29 09:03:48;;;;;;;6.77;1.10;;;9.90;99.90;;;;;;5049261;28;20102;-56
2022/12/29 09:06:15;;;;;;;6.68;0.75;;;9.90;99.90;;;;;;5049489;28;20033;-55
2022/12/29 09:08:41;;;;;;;7.70;0.75;;;10.00;99.90;;;;;;5048458;28;20061;-56
2022/12/29 09:11:26;;;;;;;3.17;0.80;;;10.10;99.90;;;;;;5049499;28;20033;-59
2022/12/29 09:13:52;;;;;;;3.00;0.45;;;10.40;99.90;;;;;;5048816;28;20283;-56
2022/12/29 09:16:19;;;;;;;;;;;10.60;99.90;;;;;;5049222;28;20095;-56
2022/12/29 09:18:45;;;;;;;3.42;0.35;;;10.70;99.90;;;;;;5049703;28;20024;-56
2022/12/29 09:21:12;;;;;;;4.47;0.53;;;10.60;99.90;;;;;;5048882;28;20128;-56
2022/12/29 09:23:38;;;;;;;3.92;0.57;;;10.50;99.90;;;;;;5044422;28;20684;-55
2022/12/29 09:26:04;;;;;;;7.22;0.77;;;10.30;99.90;;;;;;5044087;28;20029;-55
2022/12/29 09:28:29;;;;;;;9.15;0.82;;;10.20;99.90;;;;;;5049125;28;20418;-56
2022/12/29 09:30:56;;;;;;;9.57;1.20;;;10.10;99.90;;;;;;5049585;28;20068;-54
2022/12/29 09:33:21;;;;;;;;;;;10.10;99.90;;;;;;5049061;28;20047;-57
2022/12/29 09:35:57;;;;;;;9.90;0.70;;;10.10;99.90;;;;;;5049529;28;19999;-54
2022/12/29 09:38:25;;;;;;;7.90;0.68;;;10.10;99.90;;;;;;5045601;28;20124;-56
2022/12/29 09:40:55;;;;;;;5.45;0.75;;;10.00;99.90;;;;;;5049698;28;20072;-54
2022/12/29 09:43:52;;;;;;;6.55;0.52;;;9.90;99.90;;;;;;5048641;28;20064;-56
2022/12/29 09:46:31;;;;;;;3.80;0.77;;;9.90;99.90;;;;;;5049371;28;20041;-56
2022/12/29 09:49:05;;;;;;;5.53;0.93;;;9.80;99.90;;;;;;5048554;28;20441;-56
2022/12/29 09:51:32;;;;;;;5.75;0.90;;;9.90;99.90;;;;;;5049917;28;20033;-58
2022/12/29 09:54:04;;;;;;;;;;;9.90;99.90;;;;;;5048398;28;20041;-56
2022/12/29 09:56:29;;;;;;;8.32;0.52;;;9.90;99.90;;;;;;5049116;28;20370;-58
2022/12/29 09:59:15;;;;;;;5.97;1.13;;;9.90;99.90;;;;;;5048602;28;20048;-60
2022/12/29 10:01:59;;;;;;;8.75;1.35;;;9.90;99.90;;;;;;5049007;28;20076;-59
2022/12/29 10:04:28;;;;;;;6.80;1.17;;;9.90;99.90;;;;;;5047760;28;20433;-59
2022/12/29 10:07:10;;;;;;;12.48;0.90;;;9.90;99.90;;;;;;5049928;28;20478;-57
2022/12/29 10:09:45;;;;;;;10.27;1.23;;;10.00;99.90;;;;;;5052724;28;20049;-58
2022/12/29 10:12:20;;;;;;;9.98;1.85;;;10.00;99.90;;;;;;5052857;28;20041;-57
2022/12/29 10:15:29;;;;;;;7.15;1.23;;;10.10;99.90;;;;;;5051552;28;20131;-59
2022/12/29 10:18:03;;;;;;;6.95;0.88;;;10.10;99.90;;;;;;5051582;28;20083;-58
2022/12/29 10:20:54;;;;;;;13.27;1.40;;;10.10;99.90;;;;;;5052366;28;20037;-60
2022/12/29 10:23:28;;;;;;;11.80;1.13;;;10.10;99.90;;;;;;5051852;28;20091;-60
2022/12/29 10:25:56;;;;;;;8.05;1.08;;;10.10;99.90;;;;;;5033085;28;20033;-61
2022/12/29 10:28:23;;;;;;;14.63;0.90;;;10.10;99.90;;;;;;5040512;28;20164;-60
2022/12/29 10:30:50;;;;;;;6.55;0.95;;;10.20;99.90;;;;;;5052338;28;20080;-60
2022/12/29 10:33:21;;;;;;;5.75;0.57;;;10.10;99.90;;;;;;5052105;28;20075;-60
2022/12/29 10:35:47;;;;;;;4.82;0.80;;;10.20;99.90;;;;;;5052270;28;20048;-60
2022/12/29 10:38:27;;;;;;;7.95;0.73;;;10.20;99.90;;;;;;5052751;28;20040;-58
2022/12/29 10:41:13;;;;;;;13.07;0.73;;;10.20;99.90;;;;;;5047324;28;20076;-61
2022/12/29 10:43:42;;;;;;;7.00;0.47;;;10.20;99.90;;;;;;5041445;28;20098;-57
2022/12/29 10:46:14;;;;;;;6.75;1.17;;;10.20;99.90;;;;;;5050844;28;20132;-59
2022/12/29 10:48:45;;;;;;;12.85;0.93;;;10.20;99.90;;;;;;5051810;28;20048;-60
2022/12/29 10:51:15;;;;;;;8.73;0.98;;;10.20;99.90;;;;;;5050824;28;20044;-58
2022/12/29 10:53:46;;;;;;;5.20;0.90;;;10.10;99.90;;;;;;5046000;28;20033;-58
2022/12/29 10:56:21;;;;;;;6.57;0.50;;;10.00;99.90;;;;;;5036861;28;20041;-60
2022/12/29 10:58:49;;;;;;;6.85;1.40;;;10.00;99.90;;;;;;5044610;28;20045;-59
2022/12/29 11:01:16;;;;;;;8.43;1.40;;;9.90;99.90;;;;;;5045165;28;20041;-60
2022/12/29 11:04:03;;;;;;;9.60;1.00;;;9.90;99.90;;;;;;5046273;28;20037;-59
2022/12/29 11:06:33;;;;;;;7.30;1.95;;;9.80;99.90;;;;;;5046609;28;20032;-59
2022/12/29 11:09:14;;;;;;;12.15;1.13;;;9.80;99.90;;;;;;5042297;28;20048;-60
2022/12/29 11:11:39;;;;;;;4.75;0.80;;;9.70;99.90;;;;;;5045218;28;21565;-60
2022/12/29 11:14:19;;;;;;;6.17;1.07;;;9.70;99.90;;;;;;5045391;28;20029;-58
2022/12/29 11:16:55;;;;;;;10.20;1.17;;;9.60;99.90;;;;;;5046653;28;20575;-60
2022/12/29 11:19:23;;;;;;;12.02;1.38;;;9.60;99.90;;;;;;5044163;28;20051;-63
2022/12/29 11:21:49;;;;;;;11.55;1.65;;;9.60;99.90;;;;;;5043814;28;20116;-61
2022/12/29 11:24:24;;;;;;;15.15;1.05;;;9.50;99.90;;;;;;5044522;28;20124;-60
2022/12/29 11:26:56;;;;;;;7.95;1.52;;;9.50;99.90;;;;;;5045242;28;20064;-61
2022/12/29 11:29:29;;;;;;;8.57;1.20;;;9.50;99.90;;;;;;5042461;28;20041;-60
2022/12/29 11:31:58;;;;;;;4.85;1.20;;;9.60;99.90;;;;;;5046027;28;20041;-60
2022/12/29 11:34:35;;;;;;;4.20;0.60;;;9.60;99.90;;;;;;5075974;28;20072;-61
2022/12/29 11:37:06;;;;;;;7.28;1.52;;;9.60;99.90;;;;;;5044565;28;20056;-60
2022/12/29 11:39:49;;;;;;;7.10;0.93;;;9.60;99.90;;;;;;5045798;28;20254;-60
2022/12/29 11:42:18;;;;;;;8.45;0.73;;;9.60;99.90;;;;;;5043016;28;20052;-60
2022/12/29 11:44:47;;;;;;;9.95;1.42;;;9.60;99.90;;;;;;5045343;28;20055;-61
2022/12/29 11:47:29;;;;;;;6.30;0.95;;;9.60;99.90;;;;;;5043153;28;20521;-59
2022/12/29 11:49:58;;;;;;;7.70;1.13;;;9.50;99.90;;;;;;5044096;28;20452;-59
2022/12/29 11:52:27;;;;;;;7.15;1.08;;;9.60;99.90;;;;;;5040605;28;20127;-60
2022/12/29 11:54:54;;;;;;;10.43;1.13;;;9.60;99.90;;;;;;5043483;28;20052;-59
2022/12/29 11:57:21;;;;;;;3.35;0.95;;;9.60;99.90;;;;;;5044607;28;20037;-61
2022/12/29 11:59:55;;;;;;;9.43;0.82;;;9.60;99.90;;;;;;5044596;28;20128;-61
2022/12/29 12:02:41;;;;;;;5.25;0.88;;;9.60;99.90;;;;;;5043896;28;20131;-61
2022/12/29 12:05:30;;;;;;;9.23;0.88;;;9.60;99.90;;;;;;5045062;28;20036;-57
2022/12/29 12:08:36;;;;;;;12.02;1.00;;;9.60;99.90;;;;;;5044255;28;20045;-59
2022/12/29 12:11:15;;;;;;;5.60;0.70;;;9.80;99.90;;;;;;5045473;28;20080;-61
2022/12/29 12:13:51;;;;;;;4.78;0.63;;;9.90;99.90;;;;;;5043625;28;20053;-60
2022/12/29 12:16:24;;;;;;;7.15;1.10;;;10.60;99.90;;;;;;5045345;28;20090;-59
2022/12/29 12:18:57;;;;;;;5.82;0.68;;;11.10;99.90;;;;;;5044001;28;20444;-60
2022/12/29 12:21:47;;;;;;;5.65;0.80;;;11.20;99.90;;;;;;5045848;28;20052;-60
2022/12/29 12:24:36;;;;;;;3.00;0.60;;;11.30;99.90;;;;;;5040163;28;20319;-63
2022/12/29 12:27:19;;;;;;;5.80;0.90;;;11.50;99.90;;;;;;5036515;28;20615;-61
2022/12/29 12:30:01;;;;;;;6.38;0.82;;;11.80;99.90;;;;;;5044713;28;20033;-61
2022/12/29 12:32:42;;;;;;;5.05;0.98;;;12.20;99.90;;;;;;5043860;28;20041;-60
2022/12/29 12:35:37;;;;;;;7.10;0.90;;;12.20;99.90;;;;;;5044283;28;20510;-61
2022/12/29 12:38:20;;;;;;;14.55;1.42;;;11.90;99.90;;;;;;5031436;28;20198;-57
2022/12/29 12:41:08;;;;;;;7.50;0.80;;;11.90;99.90;;;;;;5041429;28;20037;-60
2022/12/29 12:43:41;;;;;;;9.38;1.45;;;12.20;99.90;;;;;;5043682;28;20079;-60
2022/12/29 12:46:41;;;;;;;12.93;1.63;;;11.80;99.90;;;;;;5044015;28;20033;-58
2022/12/29 12:49:32;;;;;;;6.82;1.45;;;11.50;99.90;;;;;;5044302;28;20337;-60
2022/12/29 12:52:07;;;;;;;10.93;1.70;;;11.30;99.90;;;;;;5027331;28;20060;-62
2022/12/29 12:54:38;;;;;;;9.52;1.25;;;11.10;99.90;;;;;;5043464;28;20404;-60
2022/12/29 12:57:29;;;;;;;9.70;1.23;;;10.90;99.90;;;;;;5043736;28;20127;-59
2022/12/29 13:00:23;;;;;;;11.68;2.25;;;10.70;99.90;;;;;;5044496;28;20071;-62
2022/12/29 13:03:00;;;;;;;7.20;1.42;;;10.60;99.90;;;;;;5041195;28;20409;-58
2022/12/29 13:05:34;;;;;;;7.97;1.45;;;10.40;99.90;;;;;;5043713;28;20041;-62
2022/12/29 13:08:20;;;;;;;8.43;1.95;;;10.30;99.90;;;;;;5042846;28;20040;-58
2022/12/29 13:11:16;;;;;;;7.88;1.92;;;10.30;99.90;;;;;;5050508;28;20069;-60
2022/12/29 13:14:07;;;;;;;11.20;1.65;;;10.20;99.90;;;;;;5040769;28;20123;-58
2022/12/29 13:16:53;;;;;;;14.27;3.05;;;10.10;99.90;;;;;;5044437;28;20537;-61
2022/12/29 13:19:25;;;;;;;8.20;1.25;;;10.00;99.90;;;;;;5076082;28;20068;-61
2022/12/29 13:22:30;;;;;;;16.08;1.95;;;10.00;99.90;;;;;;5044405;28;20048;-61
2022/12/29 13:25:08;;;;;;;13.90;2.42;;;9.90;99.90;;;;;;5023075;28;20069;-59
2022/12/29 13:27:42;;;;;;;10.18;2.08;;;9.80;99.90;;;;;;5008992;28;20502;-61
2022/12/29 13:30:18;;;;;;;5.50;0.70;;;9.70;99.90;;;;;;5003238;28;20037;-60
2022/12/29 13:33:19;;;;;;;10.00;0.90;;;9.70;99.90;;;;;;5002560;28;20033;-60
2022/12/29 13:36:02;;;;;;;10.82;1.13;;;9.60;99.90;;;;;;5004705;28;20050;-59
2022/12/29 13:38:38;;;;;;;14.32;2.10;;;9.60;99.90;;;;;;4983532;28;20045;-59
2022/12/29 13:41:10;;;;;;;12.57;2.17;;;9.50;99.90;;;;;;5003507;28;20168;-60
2022/12/29 13:43:41;;;;;;;14.15;1.60;;;9.50;99.90;;;;;;5005058;28;20034;-61
2022/12/29 13:46:28;;;;;;;14.00;2.63;;;9.50;99.90;;;;;;5004090;28;20407;-61
2022/12/29 13:49:16;;;;;;;10.45;1.60;;;9.50;99.90;;;;;;5004767;28;20042;-60